.
WxDataArchive / Data Records for 2008-05-15
2008-05-14 May 2008 2008-05-16

Data Records for Thursday, 15 May 2008

Time	Temp	Chill	HIndex	Humid	Dewpt	 Wind 	HiWind	WindDir	Rain 	Barom 
-----	----	-----	------	-----	-----	------	------	-------	-----	----- 
00:00	50.1	50.1	50.1	89	47.0	0	0	---	0.00	29.968 
00:05	50.2	50.2	50.2	89	47.1	0	1	225	0.00	29.970 
00:10	50.2	50.2	50.2	89	47.1	0	0	---	0.00	29.971 
00:15	50.4	50.4	50.4	89	47.3	0	0	---	0.00	29.976 
00:20	50.4	50.4	50.4	89	47.3	0	1	225	0.00	29.977 
00:25	50.5	50.5	50.5	89	47.4	0	1	225	0.00	29.980 
00:30	50.5	50.5	50.5	89	47.4	0	1	225	0.00	29.978 
00:35	50.7	50.7	50.7	89	47.6	0	1	225	0.00	29.976 
00:40	50.7	50.7	50.7	89	47.6	0	1	225	0.00	29.977 
00:45	50.7	50.7	50.7	90	47.9	0	1	225	0.00	29.979 
00:50	50.7	50.7	50.7	90	47.9	0	1	225	0.00	29.981 
00:55	50.7	50.7	50.7	90	47.9	0	1	225	0.00	29.980 
01:00	50.7	50.7	50.7	91	48.2	0	0	---	0.00	29.982 
01:05	50.8	50.8	50.8	91	48.3	0	1	225	0.00	29.978 
01:10	50.8	50.8	50.8	91	48.3	0	1	225	0.00	29.972 
01:15	50.8	50.8	50.8	92	48.6	0	1	225	0.00	29.965 
01:20	50.8	50.8	50.8	92	48.6	0	1	225	0.00	29.965 
01:25	50.8	50.8	50.8	92	48.6	0	2	225	0.00	29.964 
01:30	50.8	50.8	50.8	92	48.6	0	1	225	0.00	29.965 
01:35	50.7	50.7	50.7	92	48.5	0	1	225	0.00	29.964 
01:40	50.5	50.5	50.5	92	48.3	0	2	225	0.00	29.964 
01:45	50.4	50.4	50.4	92	48.2	0	0	---	0.00	29.966 
01:50	50.4	50.4	50.4	93	48.5	0	1	225	0.00	29.966 
01:55	50.2	50.2	50.2	93	48.3	0	1	225	0.00	29.968 
02:00	50.1	50.1	50.1	93	48.2	0	0	---	0.00	29.972 
02:05	49.9	49.9	49.9	93	48.0	0	0	---	0.00	29.977 
02:10	49.8	49.8	49.8	93	47.9	0	1	225	0.00	29.977 
02:15	49.6	49.6	49.6	93	47.7	0	0	---	0.00	29.976 
02:20	49.6	49.6	49.6	93	47.7	0	0	---	0.00	29.980 
02:25	49.6	49.6	49.6	94	47.9	0	2	202	0.00	29.986 
02:30	49.6	49.6	49.6	94	47.9	0	2	202	0.00	29.984 
02:35	49.8	49.8	49.8	94	48.1	0	2	112	0.00	29.983 
02:40	49.9	49.9	49.9	94	48.2	0	1	112	0.00	29.983 
02:45	49.9	49.9	49.9	93	48.0	0	2	112	0.00	29.986 
02:50	49.9	49.9	49.9	93	48.0	0	1	112	0.00	29.986 
02:55	49.8	49.8	49.8	93	47.9	0	2	112	0.00	29.986 
03:00	49.8	49.8	49.8	92	47.6	0	2	112	0.00	29.985 
03:05	49.6	49.6	49.6	91	47.1	1	3	90	0.00	29.987 
03:10	49.6	49.6	49.6	90	46.8	0	4	112	0.00	29.992 
03:15	49.5	49.5	49.5	89	46.4	0	1	90	0.00	29.990 
03:20	49.4	49.4	49.4	88	46.0	1	3	90	0.00	29.989 
03:25	49.4	49.4	49.4	87	45.7	1	4	90	0.00	29.985 
03:30	49.2	49.2	49.2	86	45.2	1	4	68	0.00	29.985 
03:35	49.2	49.2	49.2	84	44.6	1	4	135	0.00	29.984 
03:40	49.1	49.1	49.1	84	44.5	0	2	135	0.00	29.983 
03:45	48.8	48.8	48.8	84	44.2	0	1	135	0.00	29.988 
03:50	48.6	48.6	48.6	84	44.0	0	1	135	0.00	29.991 
03:55	48.5	48.5	48.5	85	44.2	0	2	135	0.00	29.994 
04:00	48.3	48.3	48.3	85	44.0	0	1	135	0.00	29.996 
04:05	48.3	48.3	48.3	85	44.0	0	1	135	0.00	29.999 
04:10	48.3	48.3	48.3	85	44.0	0	1	135	0.00	29.997 
04:15	48.2	48.2	48.2	86	44.2	0	1	135	0.00	29.998 
04:20	48.0	48.0	48.0	86	44.0	0	1	68	0.00	29.999 
04:25	47.7	47.7	47.7	86	43.7	0	1	68	0.00	30.000 
04:30	47.4	47.4	47.4	86	43.4	0	3	112	0.00	29.999 
04:35	47.3	47.3	47.3	86	43.3	0	1	112	0.00	29.997 
04:40	47.0	47.0	47.0	86	43.0	0	1	112	0.00	29.998 
04:45	46.8	46.8	46.8	86	42.8	0	2	112	0.00	29.994 
04:50	46.5	46.5	46.5	87	42.8	0	1	112	0.00	29.998 
04:55	46.4	46.4	46.4	87	42.7	0	1	112	0.00	30.001 
05:00	46.1	46.1	46.1	87	42.4	0	2	112	0.00	30.002 
05:05	46.0	46.0	46.0	87	42.4	0	2	112	0.00	30.001 
05:10	45.8	45.8	45.8	87	42.2	0	1	112	0.00	30.002 
05:15	45.7	45.7	45.7	87	42.1	0	3	112	0.00	30.003 
05:20	45.5	45.5	45.5	87	41.9	0	1	112	0.00	30.005 
05:25	45.4	45.4	45.4	87	41.8	0	2	112	0.00	30.011 
05:30	45.2	45.2	45.2	87	41.6	0	1	112	0.00	30.013 
05:35	45.1	45.1	45.1	88	41.8	0	2	112	0.00	30.011 
05:40	45.1	45.1	45.1	88	41.8	0	3	112	0.00	30.012 
05:45	44.9	44.9	44.9	88	41.6	0	1	112	0.00	30.013 
05:50	44.9	44.9	44.9	88	41.6	0	1	112	0.00	30.015 
05:55	45.1	45.1	45.1	88	41.8	1	5	112	0.00	30.020 
06:00	45.2	45.2	45.2	88	41.9	0	2	112	0.00	30.023 
06:05	45.4	45.4	45.4	87	41.8	1	5	112	0.00	30.023 
06:10	45.4	45.4	45.4	87	41.8	1	3	135	0.00	30.021 
06:15	45.7	45.7	45.7	86	41.8	0	3	112	0.00	30.022 
06:20	46.0	46.0	46.0	85	41.7	1	3	45	0.00	30.021 
06:25	46.2	46.2	46.2	84	41.6	1	5	112	0.00	30.024 
06:30	46.5	46.5	46.5	83	41.6	1	5	112	0.00	30.025 
06:35	46.8	46.8	46.8	82	41.6	0	4	68	0.00	30.023 
06:40	46.8	46.8	46.8	82	41.6	1	3	135	0.00	30.031 
06:45	46.8	46.8	46.8	83	41.9	1	4	135	0.00	30.034 
06:50	47.0	47.0	47.0	82	41.8	1	4	90	0.00	30.034 
06:55	47.0	47.0	47.0	81	41.5	1	6	112	0.00	30.037 
07:00	47.1	47.1	47.1	82	41.9	1	5	112	0.00	30.037 
07:05	47.3	47.3	47.3	82	42.1	1	3	112	0.00	30.036 
07:10	47.6	47.6	47.6	81	42.1	2	5	112	0.00	30.035 
07:15	47.7	47.7	47.7	81	42.2	2	5	112	0.00	30.035 
07:20	47.7	47.7	47.7	81	42.2	1	4	90	0.00	30.033 
07:25	47.9	47.9	47.9	81	42.4	1	4	112	0.00	30.027 
07:30	48.0	48.0	48.0	81	42.5	2	6	112	0.00	30.026 
07:35	48.2	48.2	48.2	81	42.6	2	7	90	0.00	30.024 
07:40	48.3	48.3	48.3	81	42.7	2	9	112	0.00	30.022 
07:45	48.6	48.6	48.6	81	43.0	2	5	135	0.00	30.021 
07:50	48.8	48.8	48.8	81	43.2	2	5	112	0.00	30.019 
07:55	49.4	49.4	49.4	81	43.8	1	3	68	0.00	30.020 
08:00	49.6	49.6	49.6	80	43.7	2	7	112	0.00	30.021 
08:05	49.6	48.4	49.6	79	43.4	4	9	90	0.00	30.023 
08:10	49.8	48.6	49.8	80	43.9	4	9	90	0.00	30.022 
08:15	50.1	50.1	50.1	79	43.8	3	7	90	0.00	30.025 
08:20	50.5	50.5	50.5	79	44.2	3	6	112	0.00	30.025 
08:25	50.8	50.8	50.8	78	44.2	3	7	90	0.00	30.028 
08:30	51.4	51.4	51.4	78	44.8	3	7	112	0.00	30.026 
08:35	51.6	51.6	51.6	76	44.3	3	9	90	0.00	30.028 
08:40	52.2	52.2	52.2	77	45.2	3	9	112	0.00	30.024 
08:45	52.9	52.9	52.9	77	45.9	2	7	90	0.00	30.029 
08:50	53.9	53.9	53.9	74	45.8	2	6	112	0.00	30.032 
08:55	54.1	54.1	54.1	74	46.0	4	13	112	0.00	30.036 
09:00	53.8	53.8	53.8	75	46.1	3	7	90	0.00	30.034 
09:05	54.1	54.1	54.1	75	46.4	3	9	45	0.00	30.035 
09:10	53.9	53.9	53.9	75	46.2	3	9	112	0.00	30.036 
09:15	54.2	54.2	54.2	75	46.4	2	9	112	0.00	30.033 
09:20	54.5	54.5	54.5	75	46.7	4	10	90	0.00	30.033 
09:25	54.1	54.1	54.1	74	46.0	5	12	112	0.00	30.031 
09:30	54.2	54.2	54.2	76	46.8	3	6	90	0.00	30.034 
09:35	54.5	54.5	54.5	75	46.7	3	6	112	0.00	30.036 
09:40	54.4	54.4	54.4	75	46.6	4	9	90	0.00	30.036 
09:45	54.4	54.4	54.4	75	46.6	5	10	90	0.00	30.036 
09:50	54.7	54.7	54.7	76	47.3	3	11	112	0.00	30.032 
09:55	55.0	55.0	55.0	74	46.9	4	7	112	0.00	30.032 
10:00	54.8	54.8	54.8	76	47.4	3	7	90	0.00	30.035 
10:05	54.7	54.7	54.7	74	46.6	3	7	112	0.00	30.036 
10:10	54.5	54.5	54.5	75	46.7	3	6	90	0.00	30.036 
10:15	54.5	54.5	54.5	74	46.4	5	12	90	0.00	30.043 
10:20	55.1	55.1	55.1	74	47.0	3	6	112	0.00	30.044 
10:25	55.6	55.6	55.6	72	46.7	2	6	112	0.00	30.041 
10:30	55.9	55.9	55.9	71	46.6	3	9	112	0.00	30.043 
10:35	55.9	55.9	55.9	70	46.3	3	7	112	0.00	30.045 
10:40	55.9	55.9	55.9	70	46.3	3	9	112	0.00	30.049 
10:45	56.0	56.0	56.0	69	46.0	3	9	112	0.00	30.050 
10:50	56.0	56.0	56.0	71	46.7	3	7	112	0.00	30.049 
10:55	55.7	55.7	55.7	69	45.7	4	9	112	0.00	30.054 
11:00	55.7	55.7	55.7	67	44.9	4	9	112	0.00	30.056 
11:05	55.9	55.9	55.9	67	45.1	3	12	112	0.00	30.054 
11:10	56.2	56.2	56.2	68	45.8	3	9	90	0.00	30.053 
11:15	56.3	56.3	56.3	67	45.5	3	6	90	0.00	30.052 
11:20	56.5	56.5	56.5	66	45.3	4	9	90	0.00	30.049 
11:25	56.7	56.7	56.7	65	45.1	2	6	112	0.00	30.048 
11:30	56.7	56.7	56.7	64	44.7	3	7	112	0.00	30.049 
11:35	56.7	56.7	56.7	63	44.2	2	6	90	0.00	30.050 
11:40	56.7	56.7	56.7	65	45.1	3	10	112	0.00	30.048 
11:45	56.9	56.9	56.9	65	45.3	3	6	90	0.00	30.048 
11:50	56.7	56.7	56.7	65	45.1	4	9	112	0.00	30.047 
11:55	56.7	56.7	56.7	64	44.7	3	6	90	0.00	30.053 
12:00	56.6	56.6	56.6	64	44.6	4	10	90	0.00	30.046 
12:05	56.7	56.7	56.7	65	45.1	2	7	90	0.00	30.045 
12:10	56.9	56.9	56.9	64	44.8	3	7	90	0.00	30.044 
12:15	57.0	57.0	57.0	63	44.5	2	7	112	0.00	30.044 
12:20	56.9	56.9	56.9	63	44.4	3	9	112	0.00	30.043 
12:25	56.9	56.9	56.9	63	44.4	3	10	90	0.00	30.044 
12:30	57.0	57.0	57.0	63	44.5	3	9	90	0.00	30.045 
12:35	57.0	57.0	57.0	63	44.5	3	7	112	0.00	30.043 
12:40	57.5	57.5	57.5	65	45.8	2	6	135	0.00	30.036 
12:45	57.5	57.5	57.5	62	44.6	4	10	90	0.00	30.032 
12:50	57.3	57.3	57.3	62	44.4	4	10	90	0.00	30.033 
12:55	57.3	57.3	57.3	62	44.4	4	10	90	0.00	30.032 
13:00	57.3	57.3	57.3	62	44.4	3	7	112	0.00	30.031 
13:05	57.6	57.6	57.6	64	45.5	2	6	112	0.00	30.029 
13:10	58.0	58.0	58.0	63	45.5	3	7	112	0.00	30.030 
13:15	58.1	58.1	58.1	65	46.4	3	6	112	0.00	30.030 
13:20	58.0	58.0	58.0	62	45.1	4	9	112	0.00	30.029 
13:25	57.8	57.8	57.8	64	45.7	3	10	112	0.00	30.028 
13:30	58.1	58.1	58.1	63	45.6	2	5	90	0.00	30.023 
13:35	58.1	58.1	58.1	61	44.7	3	12	112	0.00	30.021 
13:40	58.0	58.0	58.0	57	42.9	4	14	90	0.00	30.020 
13:45	57.8	57.8	57.8	58	43.1	5	15	112	0.00	30.017 
13:50	57.6	57.6	57.6	58	42.9	4	10	112	0.00	30.018 
13:55	57.8	57.8	57.8	60	44.0	3	8	90	0.00	30.015 
14:00	57.5	57.5	57.5	58	42.8	5	15	112	0.00	30.015 
14:05	57.5	57.5	57.5	58	42.8	4	10	112	0.00	30.014 
14:10	57.3	57.3	57.3	58	42.6	4	12	90	0.00	30.010 
14:15	57.3	57.3	57.3	56	41.7	4	11	112	0.00	30.006 
14:20	57.3	57.3	57.3	58	42.6	4	12	112	0.00	30.001 
14:25	57.2	57.2	57.2	58	42.6	3	7	112	0.00	29.999 
14:30	57.2	57.2	57.2	58	42.6	4	11	112	0.00	29.994 
14:35	57.3	57.3	57.3	57	42.2	4	10	112	0.00	29.992 
14:40	57.5	57.5	57.5	58	42.8	4	13	90	0.00	29.993 
14:45	57.6	57.6	57.6	59	43.4	4	10	112	0.00	29.987 
14:50	57.6	57.6	57.6	58	42.9	4	11	112	0.00	29.984 
14:55	57.5	57.5	57.5	60	43.7	4	14	112	0.00	29.983 
15:00	57.6	57.6	57.6	60	43.8	2	7	112	0.00	29.982 
15:05	57.5	57.5	57.5	59	43.3	4	11	112	0.00	29.982 
15:10	57.2	57.2	57.2	58	42.6	2	11	90	0.00	29.982 
15:15	57.0	57.0	57.0	58	42.4	2	9	112	0.00	29.984 
15:20	56.7	56.7	56.7	57	41.6	4	11	112	0.00	29.982 
15:25	56.6	56.6	56.6	58	42.0	3	7	90	0.00	29.973 
15:30	56.5	56.5	56.5	57	41.5	3	10	112	0.00	29.970 
15:35	56.6	56.6	56.6	58	42.0	2	9	68	0.00	29.969 
15:40	56.5	56.5	56.5	59	42.3	2	6	112	0.00	29.963 
15:45	56.5	56.5	56.5	59	42.3	1	5	112	0.00	29.957 
15:50	56.3	56.3	56.3	59	42.2	3	7	112	0.00	29.954 
15:55	56.2	56.2	56.2	61	42.9	3	9	112	0.00	29.949 
16:00	56.2	56.2	56.2	60	42.5	3	6	112	0.00	29.948 
16:05	56.0	56.0	56.0	62	43.2	2	6	68	0.00	29.950 
16:10	55.9	55.9	55.9	56	40.4	2	11	90	0.00	29.953 
16:15	55.7	55.7	55.7	54	39.3	3	11	90	0.00	29.954 
16:20	55.4	55.4	55.4	55	39.5	3	10	90	0.00	29.955 
16:25	55.3	55.3	55.3	57	40.3	2	7	112	0.00	29.949 
16:30	55.3	55.3	55.3	58	40.8	2	6	90	0.00	29.944 
16:35	55.1	55.1	55.1	59	41.0	2	9	112	0.00	29.945 
16:40	55.1	55.1	55.1	58	40.6	2	6	112	0.00	29.945 
16:45	55.1	55.1	55.1	59	41.0	2	6	90	0.00	29.942 
16:50	55.1	55.1	55.1	59	41.0	1	4	90	0.00	29.941 
16:55	55.1	55.1	55.1	61	41.9	1	3	135	0.00	29.940 
17:00	55.0	55.0	55.0	60	41.4	2	7	90	0.00	29.939 
17:05	55.0	55.0	55.0	59	40.9	4	10	112	0.00	29.940 
17:10	55.0	55.0	55.0	60	41.4	3	7	90	0.00	29.940 
17:15	54.8	54.8	54.8	58	40.3	3	7	90	0.00	29.940 
17:20	54.8	54.8	54.8	58	40.3	3	11	90	0.00	29.939 
17:25	54.7	54.7	54.7	59	40.7	3	9	112	0.00	29.935 
17:30	54.5	54.5	54.5	58	40.0	3	8	90	0.00	29.932 
17:35	54.5	54.5	54.5	58	40.0	2	6	90	0.00	29.932 
17:40	54.4	54.4	54.4	59	40.4	2	7	112	0.00	29.937 
17:45	54.2	54.2	54.2	60	40.6	2	4	90	0.00	29.942 
17:50	54.1	54.1	54.1	61	41.0	2	6	90	0.00	29.944 
17:55	54.1	54.1	54.1	62	41.4	3	9	112	0.00	29.944 
18:00	53.9	53.9	53.9	62	41.2	2	6	90	0.00	29.950 
18:05	53.9	53.9	53.9	62	41.2	2	5	112	0.00	29.955 
18:10	53.8	53.8	53.8	64	41.9	1	2	68	0.00	29.956 
18:15	53.6	53.6	53.6	64	41.7	1	3	90	0.00	29.956 
18:20	53.6	53.6	53.6	65	42.1	1	3	112	0.00	29.957 
18:25	53.5	53.5	53.5	64	41.6	1	4	112	0.00	29.957 
18:30	53.5	53.5	53.5	65	42.0	1	3	112	0.00	29.957 
18:35	53.5	53.5	53.5	65	42.0	1	3	112	0.00	29.956 
18:40	53.3	53.3	53.3	65	41.8	1	2	112	0.00	29.956 
18:45	53.2	53.2	53.2	65	41.7	1	5	112	0.00	29.957 
18:50	53.1	53.1	53.1	65	41.6	1	3	68	0.00	29.958 
18:55	53.1	53.1	53.1	66	42.0	1	2	68	0.00	29.960 
19:00	52.9	52.9	52.9	66	41.9	0	3	68	0.00	29.960 
19:05	52.9	52.9	52.9	67	42.2	1	3	68	0.00	29.956 
19:10	52.9	52.9	52.9	68	42.6	0	2	68	0.00	29.956 
19:15	52.8	52.8	52.8	68	42.5	1	4	112	0.00	29.955 
19:20	52.6	52.6	52.6	68	42.3	1	2	112	0.00	29.956 
19:25	52.6	52.6	52.6	68	42.3	1	3	112	0.00	29.956 
19:30	52.5	52.5	52.5	68	42.2	1	4	112	0.00	29.954 
19:35	52.5	52.5	52.5	69	42.6	1	2	112	0.00	29.953 
19:40	52.3	52.3	52.3	69	42.4	1	4	90	0.00	29.953 
19:45	52.2	52.2	52.2	70	42.7	0	2	90	0.00	29.951 
19:50	52.2	52.2	52.2	71	43.1	1	3	90	0.00	29.947 
19:55	52.2	52.2	52.2	71	43.1	1	2	90	0.00	29.945 
20:00	52.0	52.0	52.0	71	42.9	1	2	90	0.00	29.942 
20:05	52.0	52.0	52.0	71	42.9	1	3	112	0.00	29.939 
20:10	52.0	52.0	52.0	72	43.3	1	3	90	0.00	29.937 
20:15	52.0	52.0	52.0	72	43.3	1	2	90	0.00	29.937 
20:20	51.9	51.9	51.9	72	43.2	1	4	90	0.00	29.936 
20:25	51.9	51.9	51.9	73	43.5	2	4	90	0.00	29.935 
20:30	51.7	51.7	51.7	73	43.3	1	4	112	0.00	29.924 
20:35	51.6	51.6	51.6	75	43.9	1	6	112	0.00	29.922 
20:40	51.4	51.4	51.4	76	44.1	2	5	112	0.00	29.917 
20:45	51.3	51.3	51.3	77	44.3	2	6	112	0.00	29.908 
20:50	51.1	51.1	51.1	79	44.8	1	5	112	0.00	29.914 
20:55	51.0	51.0	51.0	80	45.0	1	5	112	0.01	29.923 
21:00	50.8	50.8	50.8	81	45.2	1	3	135	0.00	29.920 
21:05	50.7	50.7	50.7	83	45.7	2	5	90	0.01	29.918 
21:10	50.4	50.4	50.4	84	45.7	1	2	90	0.00	29.916 
21:15	50.2	50.2	50.2	85	45.9	1	3	112	0.00	29.917 
21:20	50.1	50.1	50.1	86	46.1	1	3	90	0.01	29.917 
21:25	49.9	49.9	49.9	86	45.9	1	3	90	0.00	29.910 
21:30	49.9	49.9	49.9	87	46.2	2	6	112	0.00	29.909 
21:35	49.8	49.8	49.8	87	46.1	1	4	112	0.00	29.908 
21:40	49.8	49.8	49.8	88	46.4	1	3	90	0.01	29.906 
21:45	49.6	49.6	49.6	89	46.5	1	3	90	0.00	29.906 
21:50	49.6	49.6	49.6	89	46.5	1	2	90	0.01	29.908 
21:55	49.5	49.5	49.5	90	46.7	0	2	90	0.00	29.906 
22:00	49.5	49.5	49.5	90	46.7	0	2	90	0.00	29.907 
22:05	49.4	49.4	49.4	90	46.6	0	1	90	0.00	29.906 
22:10	49.4	49.4	49.4	91	46.9	0	1	90	0.00	29.906 
22:15	49.4	49.4	49.4	91	46.9	0	2	90	0.01	29.908 
22:20	49.2	49.2	49.2	91	46.7	0	0	---	0.00	29.909 
22:25	49.2	49.2	49.2	92	47.0	0	0	---	0.00	29.910 
22:30	49.2	49.2	49.2	92	47.0	0	0	---	0.00	29.908 
22:35	49.1	49.1	49.1	92	46.9	0	1	90	0.01	29.904 
22:40	49.1	49.1	49.1	92	46.9	0	0	---	0.00	29.906 
22:45	49.1	49.1	49.1	92	46.9	0	0	---	0.00	29.906 
22:50	48.9	48.9	48.9	93	47.0	0	0	---	0.01	29.900 
22:55	48.9	48.9	48.9	93	47.0	0	1	90	0.00	29.896 
23:00	48.8	48.8	48.8	93	46.9	0	1	90	0.01	29.893 
23:05	48.8	48.8	48.8	93	46.9	0	2	90	0.00	29.890 
23:10	48.6	48.6	48.6	93	46.7	0	2	135	0.01	29.890 
23:15	48.6	48.6	48.6	93	46.7	0	1	135	0.00	29.889 
23:20	48.6	48.6	48.6	93	46.7	0	0	---	0.01	29.889 
23:25	48.6	48.6	48.6	94	47.0	0	0	---	0.00	29.889 
23:30	48.6	48.6	48.6	94	47.0	0	1	135	0.00	29.887 
23:35	48.5	48.5	48.5	94	46.9	0	1	135	0.01	29.888 
23:40	48.5	48.5	48.5	94	46.9	0	0	---	0.00	29.886 
23:45	48.5	48.5	48.5	94	46.9	0	1	135	0.00	29.886 
23:50	48.5	48.5	48.5	94	46.9	0	1	135	0.00	29.888 
23:55	48.5	48.5	48.5	94	46.9	0	1	135	0.00	29.888 

CoCoRaHS
IN-AL-39
A2 Web Hosting
Creative Commons License
GoDaddy
Look for:

loaded 2017-10-19 14:27:41 • last modified 2010-11-18 10:43:29
Privacy PolicyDisclaimer
• wx.awcolley.com is powered by PmWiki v.2002016 •
• all content (unless otherwise noted) © 2017 A W Colley